Time;durP1;ratioP1;P1;durP2;ratioP2;P2;SDS_P1;SDS_P2;PMS_P1;PMS_P2;Temp;Humidity;BMP_temperature;BMP_pressure;BME280_temperature;BME280_humidity;BME280_pressure;Samples;Min_cycle;Max_cycle;Signal;HPM_P1;HPM_P2
2022/09/01 00:00:51;;;;;;;14.53;13.73;;;15.60;99.90;;;;;;5059755;28;20973;-66
2022/09/01 00:03:22;;;;;;;14.07;13.37;;;15.50;99.90;;;;;;5059008;28;20547;-67
2022/09/01 00:05:54;;;;;;;13.00;12.40;;;15.50;99.90;;;;;;5053840;28;20554;-67
2022/09/01 00:08:21;;;;;;;14.03;13.33;;;15.50;99.90;;;;;;5061367;28;20557;-67
2022/09/01 00:10:48;;;;;;;13.63;12.63;;;15.50;99.90;;;;;;5058621;28;20565;-67
2022/09/01 00:13:16;;;;;;;13.93;13.13;;;15.40;99.90;;;;;;5056735;28;20513;-66
2022/09/01 00:15:43;;;;;;;13.97;12.97;;;15.40;99.90;;;;;;5065469;28;20489;-67
2022/09/01 00:18:11;;;;;;;13.90;13.03;;;15.30;99.90;;;;;;5074938;28;20996;-66
2022/09/01 00:20:39;;;;;;;14.03;13.13;;;15.30;99.90;;;;;;5084079;28;20477;-67
2022/09/01 00:23:06;;;;;;;14.60;13.70;;;15.30;99.90;;;;;;5082051;28;20458;-66
2022/09/01 00:25:33;;;;;;;13.60;12.80;;;15.20;99.90;;;;;;5081980;28;20485;-66
2022/09/01 00:28:03;;;;;;;14.93;13.87;;;15.20;99.90;;;;;;5078103;28;20509;-67
2022/09/01 00:30:31;;;;;;;14.17;13.27;;;15.20;99.90;;;;;;5086044;28;20827;-66
2022/09/01 00:32:58;;;;;;;12.93;12.33;;;15.30;99.90;;;;;;5084083;28;20486;-67
2022/09/01 00:35:25;;;;;;;13.10;12.33;;;15.40;99.90;;;;;;5072374;28;20458;-66
2022/09/01 00:37:53;;;;;;;13.57;12.70;;;15.50;99.90;;;;;;5078425;28;20461;-66
2022/09/01 00:40:20;;;;;;;13.40;12.60;;;15.60;99.90;;;;;;5079033;28;20459;-66
2022/09/01 00:42:48;;;;;;;13.60;12.80;;;15.60;99.90;;;;;;5076586;28;20466;-67
2022/09/01 00:45:18;;;;;;;13.97;13.20;;;15.70;99.90;;;;;;5080332;28;20558;-67
2022/09/01 00:47:45;;;;;;;14.40;13.60;;;15.80;99.90;;;;;;5077487;28;20453;-66
2022/09/01 00:50:14;;;;;;;14.80;13.37;;;15.80;99.90;;;;;;5081325;28;20478;-66
2022/09/01 00:52:45;;;;;;;14.00;13.20;;;15.80;99.90;;;;;;5082174;28;20992;-66
2022/09/01 00:55:17;;;;;;;13.50;12.90;;;15.90;99.90;;;;;;5084183;28;20462;-66
2022/09/01 00:57:45;;;;;;;14.63;13.83;;;16.10;99.90;;;;;;5080719;28;20452;-67
2022/09/01 01:00:15;;;;;;;14.60;13.60;;;16.20;99.90;;;;;;5076263;28;20474;-67
2022/09/01 01:02:44;;;;;;;13.83;13.13;;;16.20;99.90;;;;;;5074491;28;20459;-67
2022/09/01 01:05:12;;;;;;;14.10;13.20;;;16.20;99.90;;;;;;5083472;28;20823;-67
2022/09/01 01:07:41;;;;;;;13.40;12.80;;;16.20;99.90;;;;;;5077701;28;20467;-66
2022/09/01 01:10:10;;;;;;;13.43;12.73;;;16.20;99.90;;;;;;5083543;28;20462;-68
2022/09/01 01:12:39;;;;;;;12.90;12.20;;;16.10;99.90;;;;;;5078765;28;20486;-67
2022/09/01 01:15:08;;;;;;;13.43;12.73;;;16.10;99.90;;;;;;5083797;28;20486;-67
2022/09/01 01:17:37;;;;;;;13.00;12.30;;;16.10;99.90;;;;;;5080276;28;20485;-67
2022/09/01 01:23:04;;;;;;;13.80;12.90;;;16.10;99.90;;;;;;5084604;28;20466;-67
2022/09/01 01:25:36;;;;;;;14.00;13.20;;;16.20;99.90;;;;;;5071842;28;20554;-67
2022/09/01 01:28:09;;;;;;;14.27;13.17;;;16.20;99.90;;;;;;5074545;28;20824;-66
2022/09/01 01:30:38;;;;;;;13.80;12.87;;;16.10;99.90;;;;;;5082210;28;20469;-66
2022/09/01 01:33:07;;;;;;;14.20;13.20;;;16.10;99.90;;;;;;5081966;28;20490;-67
2022/09/01 01:35:34;;;;;;;13.70;12.90;;;16.10;99.90;;;;;;5078915;28;20463;-66
2022/09/01 01:38:06;;;;;;;14.10;13.10;;;16.10;99.90;;;;;;5078799;28;20459;-67
2022/09/01 01:40:35;;;;;;;13.07;12.47;;;16.10;99.90;;;;;;5083264;28;20538;-68
2022/09/01 01:43:03;;;;;;;14.83;13.70;;;16.00;99.90;;;;;;5072410;28;20977;-66
2022/09/01 01:45:31;;;;;;;13.90;12.93;;;16.00;99.90;;;;;;5082130;28;20462;-67
2022/09/01 01:48:00;;;;;;;14.07;13.07;;;15.90;99.90;;;;;;5078264;28;20486;-67
2022/09/01 01:50:33;;;;;;;14.13;13.03;;;15.80;99.90;;;;;;5077033;28;20455;-67
2022/09/01 01:53:01;;;;;;;14.13;13.33;;;15.70;99.90;;;;;;5076463;28;20486;-68
2022/09/01 01:55:29;;;;;;;14.77;13.77;;;15.70;99.90;;;;;;5071867;28;20807;-66
2022/09/01 01:57:58;;;;;;;14.37;13.43;;;15.60;99.90;;;;;;5078767;28;20554;-66
2022/09/01 02:00:27;;;;;;;13.93;13.13;;;15.60;99.90;;;;;;5078607;28;20472;-67
2022/09/01 02:02:55;;;;;;;14.67;13.70;;;15.60;99.90;;;;;;5079132;28;20454;-67
2022/09/01 02:05:25;;;;;;;14.50;13.40;;;15.50;99.90;;;;;;5072975;28;20459;-67
2022/09/01 02:07:55;;;;;;;14.60;13.40;;;15.40;99.90;;;;;;5070340;28;20459;-66
2022/09/01 02:10:24;;;;;;;14.87;13.50;;;15.60;99.90;;;;;;5082692;28;20494;-66
2022/09/01 02:12:51;;;;;;;13.63;12.83;;;15.60;99.90;;;;;;5081474;28;20490;-66
2022/09/01 02:15:20;;;;;;;14.07;12.70;;;15.70;99.90;;;;;;5076685;28;20861;-67
2022/09/01 02:17:48;;;;;;;13.57;12.83;;;15.60;99.90;;;;;;5074585;28;20458;-66
2022/09/01 02:20:16;;;;;;;14.23;13.13;;;15.70;99.90;;;;;;5082640;28;20454;-67
2022/09/01 02:22:44;;;;;;;13.70;12.80;;;15.60;99.90;;;;;;5079853;28;21095;-66
2022/09/01 02:25:15;;;;;;;14.03;12.97;;;15.60;99.90;;;;;;5080083;28;20741;-66
2022/09/01 02:27:45;;;;;;;14.47;13.57;;;15.60;99.90;;;;;;5078211;28;20466;-67
2022/09/01 02:30:14;;;;;;;14.90;13.63;;;15.60;99.90;;;;;;5080590;28;20951;-67
2022/09/01 02:32:43;;;;;;;13.97;13.13;;;15.60;99.90;;;;;;5074847;28;20501;-66
2022/09/01 02:35:10;;;;;;;13.60;12.90;;;15.50;99.90;;;;;;5084350;28;20498;-66
2022/09/01 02:37:38;;;;;;;14.53;13.23;;;15.40;99.90;;;;;;5071654;28;20524;-66
2022/09/01 02:40:09;;;;;;;14.63;13.93;;;15.30;99.90;;;;;;5078695;28;21068;-66
2022/09/01 02:42:39;;;;;;;14.70;13.23;;;15.20;99.90;;;;;;5078541;28;20494;-66
2022/09/01 02:45:14;;;;;;;14.80;13.83;;;15.10;99.90;;;;;;5080185;28;20466;-66
2022/09/01 02:47:44;;;;;;;14.80;13.63;;;15.10;99.90;;;;;;5078144;28;20457;-66
2022/09/01 02:50:15;;;;;;;13.87;13.17;;;15.10;99.90;;;;;;5076909;28;20940;-67
2022/09/01 02:52:44;;;;;;;14.33;13.20;;;15.20;99.90;;;;;;5078162;28;20490;-67
2022/09/01 02:55:16;;;;;;;14.03;13.33;;;15.30;99.90;;;;;;5071221;28;20462;-67
2022/09/01 02:57:47;;;;;;;14.20;13.40;;;15.20;99.90;;;;;;5081028;28;20799;-66
2022/09/01 03:00:21;;;;;;;14.33;13.47;;;15.10;99.90;;;;;;5074579;28;20882;-66
2022/09/01 03:02:52;;;;;;;14.67;13.13;;;15.20;99.90;;;;;;5074557;28;20557;-66
2022/09/01 03:05:24;;;;;;;13.90;13.07;;;15.30;99.90;;;;;;5079430;28;20486;-66
2022/09/01 03:07:55;;;;;;;13.40;12.60;;;15.20;99.90;;;;;;5080623;28;20507;-67
2022/09/01 03:10:30;;;;;;;14.13;13.30;;;15.10;99.90;;;;;;5075837;28;20527;-66
2022/09/01 03:12:58;;;;;;;14.60;13.80;;;15.00;99.90;;;;;;5078345;28;20490;-67
2022/09/01 03:15:27;;;;;;;14.00;13.30;;;14.90;99.90;;;;;;5080881;28;20571;-67
2022/09/01 03:17:58;;;;;;;14.77;13.60;;;14.90;99.90;;;;;;5075751;28;20467;-67
2022/09/01 03:20:25;;;;;;;14.60;13.53;;;14.80;99.90;;;;;;5073613;28;20454;-67
2022/09/01 03:22:52;;;;;;;14.40;13.60;;;14.80;99.90;;;;;;5080047;28;20466;-67
2022/09/01 03:25:23;;;;;;;15.13;13.80;;;14.80;99.90;;;;;;5075206;28;21017;-66
2022/09/01 03:27:50;;;;;;;14.37;13.57;;;14.70;99.90;;;;;;5077968;28;20462;-67
2022/09/01 03:30:18;;;;;;;14.17;13.37;;;14.70;99.90;;;;;;5072058;28;20836;-67
2022/09/01 03:32:46;;;;;;;13.97;13.17;;;14.80;99.90;;;;;;5071456;28;20496;-67
2022/09/01 03:35:14;;;;;;;15.40;14.50;;;14.70;99.90;;;;;;5083457;28;20771;-67
2022/09/01 03:37:43;;;;;;;13.93;13.23;;;14.70;99.90;;;;;;5078772;28;20465;-66
2022/09/01 03:40:11;;;;;;;14.10;13.27;;;14.60;99.90;;;;;;5074516;28;20907;-68
2022/09/01 03:42:39;;;;;;;16.40;15.20;;;14.60;99.90;;;;;;5083660;28;20836;-67
2022/09/01 03:45:08;;;;;;;13.67;12.97;;;14.50;99.90;;;;;;5078766;28;20516;-67
2022/09/01 03:47:39;;;;;;;15.27;14.17;;;14.50;99.90;;;;;;5085880;28;20469;-68
2022/09/01 03:50:09;;;;;;;13.90;13.30;;;14.40;99.90;;;;;;5078565;28;20486;-67
2022/09/01 03:52:39;;;;;;;14.43;13.63;;;14.40;99.90;;;;;;5080455;28;21058;-66
2022/09/01 03:55:08;;;;;;;15.93;14.87;;;14.40;99.90;;;;;;5085203;28;20476;-67
2022/09/01 03:57:41;;;;;;;14.60;13.77;;;14.30;99.90;;;;;;5077662;28;20462;-66
2022/09/01 04:00:19;;;;;;;15.80;14.50;;;14.30;99.90;;;;;;5081431;28;20514;-67
2022/09/01 04:02:47;;;;;;;13.57;12.97;;;14.30;99.90;;;;;;5052946;28;20454;-68
2022/09/01 04:05:15;;;;;;;15.40;14.30;;;14.30;99.90;;;;;;5049150;28;20459;-66
2022/09/01 04:07:45;;;;;;;15.33;14.17;;;14.20;99.90;;;;;;5049594;28;20463;-69
2022/09/01 04:10:13;;;;;;;15.43;14.33;;;14.20;99.90;;;;;;5050641;28;20985;-68
2022/09/01 04:12:40;;;;;;;15.10;14.10;;;14.10;99.90;;;;;;5050025;28;20485;-66
2022/09/01 04:15:08;;;;;;;15.03;14.03;;;14.10;99.90;;;;;;5051043;28;22466;-66
2022/09/01 04:20:20;;;;;;;14.63;13.70;;;14.10;99.90;;;;;;5051125;28;20466;-67
2022/09/01 04:22:51;;;;;;;14.43;13.53;;;14.10;99.90;;;;;;5050282;28;20995;-67
2022/09/01 04:25:22;;;;;;;14.87;13.97;;;14.10;99.90;;;;;;5050850;28;20841;-68
2022/09/01 04:27:49;;;;;;;14.80;14.00;;;14.10;99.90;;;;;;5052074;28;20910;-67
2022/09/01 04:30:16;;;;;;;15.33;14.43;;;14.10;99.90;;;;;;5050629;28;20530;-67
2022/09/01 04:32:45;;;;;;;15.07;13.93;;;14.00;99.90;;;;;;5051384;28;21158;-66
2022/09/01 04:35:15;;;;;;;15.93;14.97;;;14.00;99.90;;;;;;5050820;28;20513;-66
2022/09/01 04:37:43;;;;;;;15.13;14.23;;;13.90;99.90;;;;;;5052081;28;20889;-67
2022/09/01 04:40:13;;;;;;;15.60;14.50;;;13.80;99.90;;;;;;5052243;28;20466;-66
2022/09/01 04:42:40;;;;;;;15.77;14.77;;;13.80;99.90;;;;;;5049536;28;20521;-67
2022/09/01 04:45:09;;;;;;;14.67;13.77;;;13.90;99.90;;;;;;5050831;28;20505;-68
2022/09/01 04:47:40;;;;;;;15.60;14.60;;;14.00;99.90;;;;;;5050872;28;20454;-68
2022/09/01 04:50:12;;;;;;;13.90;13.10;;;14.10;99.90;;;;;;5062597;28;20454;-67
2022/09/01 04:52:40;;;;;;;14.93;14.03;;;14.20;99.90;;;;;;5077206;28;20493;-68
2022/09/01 04:55:16;;;;;;;14.43;13.63;;;14.20;99.90;;;;;;5082585;28;20450;-67
2022/09/01 04:57:46;;;;;;;15.03;14.23;;;14.20;99.90;;;;;;5074899;28;20946;-68
2022/09/01 05:00:21;;;;;;;15.03;14.20;;;14.20;99.90;;;;;;5049482;28;20487;-68
2022/09/01 05:02:50;;;;;;;15.60;14.50;;;14.20;99.90;;;;;;5049680;28;20454;-67
2022/09/01 05:05:18;;;;;;;15.17;13.93;;;14.00;99.90;;;;;;5050388;28;20930;-68
2022/09/01 05:07:45;;;;;;;15.20;14.30;;;14.00;99.90;;;;;;5050560;28;20462;-68
2022/09/01 05:10:12;;;;;;;14.93;13.93;;;14.20;99.90;;;;;;5050789;28;20493;-68
2022/09/01 05:12:40;;;;;;;15.70;14.50;;;14.30;99.90;;;;;;5049576;28;20937;-69
2022/09/01 05:15:09;;;;;;;14.70;13.67;;;14.40;99.90;;;;;;5049210;28;20938;-68
2022/09/01 05:17:37;;;;;;;15.63;14.63;;;14.40;99.90;;;;;;5050429;28;20455;-67
2022/09/01 05:20:05;;;;;;;15.87;14.13;;;14.40;99.90;;;;;;5050714;28;21023;-68
2022/09/01 05:22:32;;;;;;;15.00;14.03;;;14.60;99.90;;;;;;5048667;28;20545;-67
2022/09/01 05:25:11;;;;;;;18.27;14.43;;;14.60;99.90;;;;;;5048623;28;21090;-69
2022/09/01 05:27:39;;;;;;;14.73;13.93;;;14.60;99.90;;;;;;5066072;28;20468;-67
2022/09/01 05:30:09;;;;;;;15.70;14.50;;;14.60;99.90;;;;;;5071147;28;20471;-68
2022/09/01 05:32:38;;;;;;;16.07;14.90;;;14.70;99.90;;;;;;5072266;28;20456;-68
2022/09/01 05:35:07;;;;;;;15.47;14.57;;;14.70;99.90;;;;;;5079131;28;20462;-68
2022/09/01 05:37:36;;;;;;;15.73;14.47;;;14.90;99.90;;;;;;5049070;28;20462;-67
2022/09/01 05:40:04;;;;;;;15.83;14.10;;;15.10;99.90;;;;;;5049101;28;20470;-67
2022/09/01 05:42:32;;;;;;;14.70;13.80;;;15.30;99.90;;;;;;5050863;28;20791;-67
2022/09/01 05:45:00;;;;;;;16.33;14.80;;;15.50;99.90;;;;;;5049518;28;20475;-67
2022/09/01 05:47:28;;;;;;;14.90;14.10;;;15.70;99.90;;;;;;5051159;28;20463;-68
2022/09/01 05:49:57;;;;;;;16.13;14.90;;;16.00;99.90;;;;;;5049909;28;20470;-67
2022/09/01 05:52:25;;;;;;;15.03;14.20;;;16.10;99.90;;;;;;5050194;28;20563;-66
2022/09/01 05:54:53;;;;;;;16.27;15.30;;;16.20;99.90;;;;;;5049749;28;20536;-66
2022/09/01 05:57:19;;;;;;;15.33;14.53;;;16.30;99.90;;;;;;5050152;28;20458;-68
2022/09/01 05:59:52;;;;;;;16.47;15.03;;;16.40;99.90;;;;;;5050757;28;20483;-67
2022/09/01 06:02:20;;;;;;;16.73;15.30;;;16.50;99.90;;;;;;5049020;28;20479;-66
2022/09/01 06:04:48;;;;;;;15.23;14.33;;;16.60;99.90;;;;;;5049400;28;21002;-66
2022/09/01 06:07:16;;;;;;;15.00;14.20;;;16.70;99.90;;;;;;5048716;28;20949;-67
2022/09/01 06:09:46;;;;;;;15.60;14.60;;;16.60;99.90;;;;;;5049631;28;22538;-68
2022/09/01 06:12:17;;;;;;;16.17;15.17;;;16.70;99.90;;;;;;5050021;28;20551;-67
2022/09/01 06:14:44;;;;;;;16.13;15.07;;;16.80;99.90;;;;;;5047577;28;20495;-67
2022/09/01 06:17:15;;;;;;;15.00;14.23;;;16.90;99.90;;;;;;5047998;28;20474;-67
2022/09/01 06:19:42;;;;;;;16.20;14.77;;;16.80;99.90;;;;;;5049732;28;20459;-67
2022/09/01 06:22:11;;;;;;;15.80;15.00;;;16.70;99.90;;;;;;5050359;28;21148;-67
2022/09/01 06:24:38;;;;;;;16.37;15.40;;;16.90;99.90;;;;;;5048165;28;21588;-67
2022/09/01 06:27:08;;;;;;;16.70;15.60;;;16.90;99.90;;;;;;5049469;28;20864;-68
2022/09/01 06:29:38;;;;;;;17.27;15.80;;;17.00;99.90;;;;;;5048890;28;20467;-66
2022/09/01 06:32:09;;;;;;;16.60;15.47;;;17.20;99.90;;;;;;5049832;28;20466;-67
2022/09/01 06:34:36;;;;;;;16.67;15.57;;;17.30;99.90;;;;;;5049577;28;21016;-67
2022/09/01 06:37:02;;;;;;;18.00;16.70;;;17.40;99.90;;;;;;5048662;28;20493;-67
2022/09/01 06:39:33;;;;;;;16.80;15.60;;;17.40;99.90;;;;;;5048866;28;20473;-67
2022/09/01 06:42:01;;;;;;;16.83;15.73;;;17.40;99.90;;;;;;5049425;28;20521;-67
2022/09/01 06:44:30;;;;;;;17.10;16.10;;;17.50;99.90;;;;;;5048212;28;20573;-67
2022/09/01 06:46:58;;;;;;;18.10;16.70;;;17.60;99.90;;;;;;5049502;28;20974;-68
2022/09/01 06:49:31;;;;;;;16.87;15.97;;;17.70;99.90;;;;;;5048545;28;20524;-68
2022/09/01 06:51:58;;;;;;;17.80;16.40;;;17.70;99.90;;;;;;5049982;28;20527;-66
2022/09/01 06:54:25;;;;;;;16.60;15.70;;;18.00;99.90;;;;;;5047417;28;20501;-67
2022/09/01 06:56:54;;;;;;;16.70;15.80;;;17.90;99.90;;;;;;5047377;28;20554;-67
2022/09/01 06:59:22;;;;;;;17.80;16.20;;;18.00;99.90;;;;;;5048429;28;20522;-67
2022/09/01 07:01:50;;;;;;;18.47;16.77;;;18.00;99.90;;;;;;5048632;28;21176;-67
2022/09/01 07:04:18;;;;;;;17.50;16.43;;;18.20;99.90;;;;;;5047661;28;21150;-67
2022/09/01 07:06:50;;;;;;;17.40;16.33;;;18.40;99.90;;;;;;5048482;28;20541;-67
2022/09/01 07:09:18;;;;;;;17.20;16.20;;;18.50;99.90;;;;;;5047393;28;20466;-67
2022/09/01 07:11:45;;;;;;;16.57;15.67;;;18.50;99.90;;;;;;5049280;28;22792;-68
2022/09/01 07:14:14;;;;;;;18.40;16.70;;;18.70;99.90;;;;;;5046178;28;20864;-68
2022/09/01 07:16:42;;;;;;;17.80;16.50;;;18.80;99.90;;;;;;5047237;28;20502;-66
2022/09/01 07:19:12;;;;;;;18.73;17.10;;;18.90;99.90;;;;;;5051959;28;20802;-68
2022/09/01 07:21:39;;;;;;;17.87;16.70;;;18.70;99.90;;;;;;5051120;28;21886;-68
2022/09/01 07:24:06;;;;;;;17.53;16.63;;;18.70;99.90;;;;;;5050435;28;20459;-68
2022/09/01 07:26:34;;;;;;;16.90;16.00;;;18.80;99.90;;;;;;5052395;28;20462;-68
2022/09/01 07:29:02;;;;;;;17.47;16.47;;;19.10;99.90;;;;;;5050832;28;21174;-68
2022/09/01 07:31:34;;;;;;;16.17;15.27;;;19.00;99.90;;;;;;5052193;28;21025;-68
2022/09/01 07:34:03;;;;;;;17.47;16.37;;;19.10;99.90;;;;;;5052940;28;20500;-67
2022/09/01 07:36:30;;;;;;;17.53;16.33;;;19.30;99.90;;;;;;5052152;28;20454;-68
2022/09/01 07:38:57;;;;;;;17.43;16.20;;;19.40;99.90;;;;;;5052210;28;20776;-68
2022/09/01 07:41:27;;;;;;;17.80;16.80;;;19.60;99.90;;;;;;5052793;28;20454;-68
2022/09/01 07:43:55;;;;;;;17.40;16.40;;;19.70;99.90;;;;;;5051718;28;20540;-67
2022/09/01 07:46:24;;;;;;;18.27;16.10;;;19.80;99.90;;;;;;5072448;28;20458;-68
2022/09/01 07:48:54;;;;;;;16.97;16.07;;;19.90;99.90;;;;;;5081806;28;20976;-67
2022/09/01 07:51:22;;;;;;;16.57;15.67;;;20.10;99.90;;;;;;5052667;28;20560;-68
2022/09/01 07:53:49;;;;;;;17.53;16.03;;;20.40;99.90;;;;;;5051315;28;20486;-67
2022/09/01 07:56:19;;;;;;;17.13;16.03;;;20.50;99.90;;;;;;5051808;28;20830;-66
2022/09/01 07:58:46;;;;;;;17.30;16.30;;;20.70;99.90;;;;;;5051055;28;20505;-66
2022/09/01 08:01:19;;;;;;;16.97;15.80;;;20.80;99.90;;;;;;5052259;28;21254;-67
2022/09/01 08:03:47;;;;;;;17.33;16.30;;;20.80;99.90;;;;;;5050649;28;20807;-68
2022/09/01 08:06:19;;;;;;;17.67;16.53;;;20.80;99.90;;;;;;5049334;28;20965;-68
2022/09/01 08:08:48;;;;;;;18.73;16.90;;;20.90;99.90;;;;;;5051573;28;20469;-67
2022/09/01 08:11:17;;;;;;;17.90;16.37;;;21.00;99.90;;;;;;5051824;28;20473;-67
2022/09/01 08:13:44;;;;;;;17.63;16.40;;;21.10;99.90;;;;;;5051257;28;21239;-66
2022/09/01 08:16:12;;;;;;;21.03;17.00;;;21.30;99.90;;;;;;5051168;28;20851;-68
2022/09/01 08:18:39;;;;;;;17.93;16.67;;;21.40;99.90;;;;;;5052296;28;21207;-68
2022/09/01 08:21:07;;;;;;;18.77;16.90;;;21.40;99.90;;;;;;5051826;28;20805;-68
2022/09/01 08:23:36;;;;;;;18.00;16.60;;;21.40;99.90;;;;;;5051514;28;20467;-67
2022/09/01 08:26:07;;;;;;;17.63;16.43;;;21.50;99.90;;;;;;5050040;28;20468;-66
2022/09/01 08:28:33;;;;;;;18.70;16.87;;;21.70;99.90;;;;;;5051645;28;20458;-67
2022/09/01 08:31:05;;;;;;;18.97;17.30;;;21.60;99.90;;;;;;5050372;28;20458;-68
2022/09/01 08:33:33;;;;;;;18.15;16.50;;;21.80;99.90;;;;;;5050706;28;21329;-69
2022/09/01 08:36:01;;;;;;;18.37;16.93;;;21.80;99.90;;;;;;5051561;28;20472;-69
2022/09/01 08:38:28;;;;;;;16.97;15.97;;;21.80;99.90;;;;;;5050580;28;22390;-69
2022/09/01 08:40:59;;;;;;;17.30;16.20;;;22.00;99.90;;;;;;5051596;28;20459;-69
2022/09/01 08:43:43;;;;;;;17.03;15.93;;;22.20;99.90;;;;;;5050141;28;20831;-69
2022/09/01 08:46:13;;;;;;;17.50;16.50;;;22.10;99.90;;;;;;5050868;28;20471;-69
2022/09/01 08:48:42;;;;;;;18.57;16.70;;;22.10;99.90;;;;;;5050412;28;20482;-67
2022/09/01 08:51:15;;;;;;;16.87;15.97;;;22.20;99.90;;;;;;5049658;28;20466;-69
2022/09/01 08:53:49;;;;;;;16.33;15.53;;;22.20;99.90;;;;;;5050874;28;20957;-67
2022/09/01 08:56:18;;;;;;;16.70;15.83;;;22.40;99.90;;;;;;5051378;28;20484;-67
2022/09/01 08:58:46;;;;;;;16.90;15.80;;;22.70;99.90;;;;;;5050074;28;20483;-67
2022/09/01 09:01:26;;;;;;;18.00;16.60;;;22.60;99.90;;;;;;5050452;28;20481;-68
2022/09/01 09:04:06;;;;;;;17.00;16.10;;;22.90;99.90;;;;;;5048767;28;20470;-69
2022/09/01 09:06:42;;;;;;;16.50;15.47;;;23.00;99.90;;;;;;5051532;28;20612;-67
2022/09/01 09:09:10;;;;;;;16.90;16.10;;;23.40;99.90;;;;;;5049679;28;20465;-68
2022/09/01 09:11:51;;;;;;;16.77;15.87;;;24.20;99.90;;;;;;5049972;28;20467;-67
2022/09/01 09:14:35;;;;;;;17.60;16.40;;;25.00;97.30;;;;;;5048475;28;20482;-68
2022/09/01 09:17:03;;;;;;;16.80;15.90;;;25.40;95.60;;;;;;5049083;28;20491;-68
2022/09/01 09:19:33;;;;;;;17.60;16.10;;;26.30;92.50;;;;;;5047776;28;20469;-69
2022/09/01 09:22:03;;;;;;;17.83;16.10;;;27.30;91.00;;;;;;5048702;28;20469;-69
2022/09/01 09:24:46;;;;;;;16.37;15.47;;;27.50;86.40;;;;;;5048443;28;20468;-67
2022/09/01 09:27:20;;;;;;;17.30;16.10;;;27.80;80.20;;;;;;5048666;28;20455;-68
2022/09/01 09:29:49;;;;;;;16.63;15.67;;;28.40;75.10;;;;;;5048308;28;20472;-68
2022/09/01 09:32:16;;;;;;;16.23;15.43;;;28.50;71.80;;;;;;5049316;28;20466;-68
2022/09/01 09:34:44;;;;;;;16.50;15.57;;;28.20;70.00;;;;;;5050831;28;20487;-68
2022/09/01 09:37:25;;;;;;;16.60;15.80;;;27.90;68.10;;;;;;5048686;28;20466;-68
2022/09/01 09:40:11;;;;;;;16.70;15.80;;;27.90;67.70;;;;;;5049346;28;20466;-70
2022/09/01 09:42:42;;;;;;;16.60;15.60;;;28.00;65.00;;;;;;5049327;28;20458;-69
2022/09/01 09:45:23;;;;;;;16.20;15.40;;;28.30;64.20;;;;;;5048839;28;20505;-69
2022/09/01 09:47:50;;;;;;;17.27;16.03;;;28.50;61.60;;;;;;5049940;28;20894;-69
2022/09/01 09:50:24;;;;;;;16.77;15.53;;;29.10;63.10;;;;;;5049035;28;20852;-69
2022/09/01 09:52:54;;;;;;;16.63;15.53;;;29.20;59.60;;;;;;5049427;28;20462;-69
2022/09/01 09:55:27;;;;;;;15.90;15.10;;;29.00;59.40;;;;;;5050380;28;20495;-69
2022/09/01 09:57:58;;;;;;;16.30;15.40;;;29.30;57.80;;;;;;5048438;28;20542;-68
2022/09/01 10:00:28;;;;;;;16.90;16.10;;;29.70;58.30;;;;;;5048727;28;20515;-68
2022/09/01 10:03:01;;;;;;;16.53;15.73;;;28.60;56.30;;;;;;5049463;28;21073;-69
2022/09/01 10:05:39;;;;;;;16.00;15.10;;;27.80;57.60;;;;;;5049296;28;20447;-69
2022/09/01 10:08:09;;;;;;;16.40;15.60;;;27.00;57.70;;;;;;5049305;28;20473;-69
2022/09/01 10:10:41;;;;;;;16.73;15.70;;;27.20;57.90;;;;;;5049750;28;20475;-69
2022/09/01 10:13:14;;;;;;;15.70;14.90;;;27.40;57.30;;;;;;5049509;28;21403;-69
2022/09/01 10:15:44;;;;;;;16.17;15.27;;;27.30;57.40;;;;;;5048290;28;20494;-70
2022/09/01 10:18:15;;;;;;;16.33;15.53;;;27.80;56.50;;;;;;5048723;28;20476;-69
2022/09/01 10:20:47;;;;;;;15.57;14.70;;;28.70;55.20;;;;;;5047937;28;20470;-69
2022/09/01 10:23:14;;;;;;;16.10;15.30;;;28.10;53.80;;;;;;5047675;28;20872;-69
2022/09/01 10:25:42;;;;;;;16.57;15.77;;;28.00;53.30;;;;;;5048399;28;20479;-68
2022/09/01 10:28:13;;;;;;;15.83;15.00;;;27.90;53.00;;;;;;5048739;28;20979;-69
2022/09/01 10:30:43;;;;;;;15.60;14.70;;;27.20;53.10;;;;;;5048996;28;20490;-69
2022/09/01 10:33:11;;;;;;;16.30;15.20;;;27.20;51.80;;;;;;5049117;28;20466;-68
2022/09/01 10:35:41;;;;;;;15.80;15.00;;;27.20;52.00;;;;;;5048683;28;20727;-68
2022/09/01 10:38:10;;;;;;;15.57;14.77;;;27.30;52.10;;;;;;5048386;28;20570;-69
2022/09/01 10:40:44;;;;;;;16.03;15.10;;;27.80;51.90;;;;;;5049312;28;20475;-69
2022/09/01 10:43:44;;;;;;;15.80;15.10;;;28.30;51.80;;;;;;5049244;28;21362;-70
2022/09/01 10:46:45;;;;;;;15.17;14.30;;;27.90;49.10;;;;;;4972181;28;21010;-69
2022/09/01 10:49:57;;;;;;;14.87;14.27;;;28.40;48.50;;;;;;5048124;28;20469;-68
2022/09/01 10:52:55;;;;;;;16.10;15.20;;;29.10;46.90;;;;;;5078602;28;20458;-70
2022/09/01 10:55:25;;;;;;;15.43;14.63;;;29.90;46.10;;;;;;5050082;28;20498;-69
2022/09/01 10:58:05;;;;;;;15.93;15.23;;;30.60;45.30;;;;;;5048717;28;20471;-69
2022/09/01 11:00:50;;;;;;;16.50;15.60;;;31.10;43.30;;;;;;5048728;28;20475;-69
2022/09/01 11:03:49;;;;;;;15.80;14.70;;;31.70;40.90;;;;;;5048157;28;20475;-68
2022/09/01 11:06:44;;;;;;;16.07;15.37;;;31.80;40.30;;;;;;5048622;28;20459;-68
2022/09/01 11:09:20;;;;;;;15.30;14.60;;;31.60;41.50;;;;;;5047951;28;20466;-70
2022/09/01 11:11:56;;;;;;;15.40;14.70;;;31.10;40.10;;;;;;5049321;28;20489;-69
2022/09/01 11:14:25;;;;;;;15.70;15.00;;;30.00;42.20;;;;;;5048915;28;20480;-70
2022/09/01 11:17:15;;;;;;;15.80;15.10;;;30.80;41.50;;;;;;5048866;28;20486;-70
2022/09/01 11:19:45;;;;;;;15.33;14.53;;;31.90;39.70;;;;;;5047367;28;20471;-69
2022/09/01 11:22:24;;;;;;;15.33;14.50;;;31.80;38.70;;;;;;5048572;28;20478;-67
2022/09/01 11:25:37;;;;;;;16.17;15.37;;;32.40;38.50;;;;;;5047866;28;20557;-68
2022/09/01 11:28:41;;;;;;;15.77;14.87;;;33.40;38.00;;;;;;5047935;28;20463;-68
2022/09/01 11:31:29;;;;;;;15.80;15.03;;;32.70;37.10;;;;;;5048238;28;20879;-67
2022/09/01 11:34:13;;;;;;;15.47;14.67;;;32.40;36.60;;;;;;5047171;28;20553;-69
2022/09/01 11:36:51;;;;;;;16.00;15.10;;;32.70;37.00;;;;;;5048578;28;20494;-69
2022/09/01 11:39:31;;;;;;;15.53;14.83;;;33.00;35.80;;;;;;5048428;28;20617;-69
2022/09/01 11:42:01;;;;;;;16.03;15.17;;;33.40;35.30;;;;;;5047796;28;20469;-68
2022/09/01 11:44:33;;;;;;;15.83;15.00;;;32.70;35.10;;;;;;5047664;28;20478;-68
2022/09/01 11:47:04;;;;;;;15.70;14.80;;;31.90;36.10;;;;;;5048239;28;20483;-68
2022/09/01 11:49:34;;;;;;;15.87;15.10;;;32.30;35.90;;;;;;5047383;28;20457;-69
2022/09/01 11:52:03;;;;;;;15.57;14.77;;;32.90;36.40;;;;;;5047761;28;20462;-68
2022/09/01 11:54:39;;;;;;;15.80;15.10;;;33.20;34.90;;;;;;5048451;28;20451;-69
2022/09/01 11:57:23;;;;;;;15.80;15.10;;;33.70;34.50;;;;;;5048359;28;20462;-69
2022/09/01 11:59:50;;;;;;;16.37;14.97;;;34.00;34.00;;;;;;5048186;28;21001;-69
2022/09/01 12:02:19;;;;;;;16.23;15.20;;;33.40;33.00;;;;;;5050875;28;20455;-69
2022/09/01 12:04:49;;;;;;;17.10;15.83;;;32.70;33.40;;;;;;5051045;28;20808;-68
2022/09/01 12:07:27;;;;;;;14.73;14.13;;;32.90;34.20;;;;;;5051255;28;20490;-69
2022/09/01 12:09:55;;;;;;;15.60;14.90;;;34.30;32.70;;;;;;5051796;28;20995;-69
2022/09/01 12:12:32;;;;;;;15.87;14.97;;;34.00;31.10;;;;;;5050974;28;20454;-68
2022/09/01 12:15:00;;;;;;;15.73;15.03;;;34.50;31.80;;;;;;5051174;28;20477;-68
2022/09/01 12:17:27;;;;;;;15.43;14.63;;;34.30;31.90;;;;;;5051851;28;20462;-69
2022/09/01 12:19:56;;;;;;;15.57;14.87;;;34.30;31.90;;;;;;5051571;28;20467;-68
2022/09/01 12:22:23;;;;;;;15.00;14.30;;;34.50;31.40;;;;;;5051348;28;20589;-69
2022/09/01 12:24:52;;;;;;;15.40;14.70;;;35.90;31.10;;;;;;5051506;28;20833;-69
2022/09/01 12:27:21;;;;;;;15.83;14.90;;;35.90;29.90;;;;;;5051979;28;20818;-68
2022/09/01 12:29:49;;;;;;;15.30;14.50;;;35.90;30.50;;;;;;5052659;28;20562;-69
2022/09/01 12:32:17;;;;;;;14.47;13.77;;;35.20;30.40;;;;;;5051497;28;20490;-69
2022/09/01 12:34:46;;;;;;;14.63;14.03;;;34.40;30.70;;;;;;5051468;28;20585;-68
2022/09/01 12:37:21;;;;;;;15.20;14.40;;;34.00;31.60;;;;;;5051517;28;20471;-69
2022/09/01 12:39:50;;;;;;;14.90;14.30;;;33.70;31.50;;;;;;5052167;28;20913;-70
2022/09/01 12:42:27;;;;;;;15.27;14.57;;;33.30;31.20;;;;;;5051108;28;20451;-69
2022/09/01 12:44:56;;;;;;;14.97;14.17;;;33.80;31.40;;;;;;5052145;28;21209;-69
2022/09/01 12:47:48;;;;;;;15.53;14.73;;;34.60;31.40;;;;;;5050168;28;20482;-70
2022/09/01 12:50:44;;;;;;;15.20;14.50;;;34.60;31.40;;;;;;5043338;28;20462;-69
2022/09/01 12:53:19;;;;;;;16.10;15.00;;;35.00;31.20;;;;;;5051108;28;20466;-69